Time;durP1;ratioP1;P1;durP2;ratioP2;P2;SDS_P1;SDS_P2;PMS_P1;PMS_P2;Temp;Humidity;BMP_temperature;BMP_pressure;BME280_temperature;BME280_humidity;BME280_pressure;Samples;Min_cycle;Max_cycle;Signal;HPM_P1;HPM_P2
2022/08/31 00:05:26;;;;;;;3.43;3.10;;;23.70;64.60;;;24.94;42.22;100729.00;5002041;28;20638;-71
2022/08/31 00:07:54;;;;;;;3.50;3.13;;;23.60;64.60;;;24.84;42.87;100727.75;5001528;28;20729;-69
2022/08/31 00:10:26;;;;;;;3.40;3.10;;;23.60;64.90;;;24.84;42.71;100735.75;4992603;28;21158;-69
2022/08/31 00:13:01;;;;;;;4.40;2.93;;;23.60;65.10;;;24.79;43.28;100733.69;4993197;28;20642;-71
2022/08/31 00:15:29;;;;;;;3.90;3.47;;;23.60;65.20;;;24.84;42.82;100728.56;4992440;28;20599;-69
2022/08/31 00:17:57;;;;;;;2.90;2.70;;;23.50;65.10;;;24.89;42.71;100734.16;4995801;28;20668;-69
2022/08/31 00:20:26;;;;;;;3.43;3.10;;;23.60;65.20;;;24.83;43.17;100734.13;5012779;28;20978;-70
2022/08/31 00:23:08;;;;;;;3.20;2.70;;;23.50;65.30;;;24.84;43.10;100727.75;5010339;28;20967;-70
2022/08/31 00:25:39;;;;;;;2.87;2.63;;;23.50;65.40;;;24.85;42.70;100732.06;5012026;28;20629;-70
2022/08/31 00:28:08;;;;;;;2.77;2.50;;;23.50;65.60;;;24.62;43.79;100754.53;5010880;28;20630;-68
2022/08/31 00:30:35;;;;;;;3.50;2.67;;;23.50;65.90;;;24.61;43.53;100755.56;5011875;28;21208;-68
2022/08/31 00:33:04;;;;;;;2.77;2.57;;;23.40;66.20;;;24.66;43.52;100763.78;5011535;28;20615;-68
2022/08/31 00:35:34;;;;;;;2.83;2.10;;;23.40;66.20;;;24.62;43.56;100767.88;4992592;28;20637;-67
2022/08/31 00:38:05;;;;;;;3.53;3.20;;;23.40;66.40;;;24.31;44.59;100751.50;4997561;28;20698;-70
2022/08/31 00:40:33;;;;;;;7.10;2.40;;;23.20;66.90;;;24.35;44.21;100760.75;5010139;28;20640;-68
2022/08/31 00:43:11;;;;;;;4.47;2.47;;;23.20;67.00;;;24.33;44.48;100760.13;5012239;28;21145;-67
2022/08/31 00:45:39;;;;;;;3.00;2.80;;;23.20;67.20;;;24.45;43.98;100765.69;4999746;28;20634;-69
2022/08/31 00:48:06;;;;;;;3.00;2.80;;;23.20;67.10;;;24.39;44.06;100758.50;5007553;28;20669;-68
2022/08/31 00:50:33;;;;;;;4.70;2.70;;;23.10;67.00;;;24.36;44.00;100751.72;4991039;28;21834;-68
2022/08/31 00:53:00;;;;;;;5.87;3.00;;;23.10;67.20;;;24.31;44.37;100751.50;4999925;28;20637;-70
2022/08/31 00:55:35;;;;;;;3.43;3.00;;;23.10;67.40;;;24.36;44.23;100754.38;5010619;28;20617;-68
2022/08/31 00:58:08;;;;;;;4.30;2.57;;;23.10;67.30;;;24.32;44.36;100750.44;4991477;28;20634;-68
2022/08/31 01:00:36;;;;;;;3.17;2.87;;;23.10;67.40;;;24.30;44.48;100752.50;4992018;28;20630;-68
2022/08/31 01:03:06;;;;;;;5.70;2.90;;;23.00;67.50;;;24.32;44.48;100747.78;4996504;28;21194;-69
2022/08/31 01:05:35;;;;;;;3.30;3.00;;;23.00;67.60;;;24.32;44.32;100747.78;5010612;28;20613;-69
2022/08/31 01:08:03;;;;;;;4.63;3.17;;;23.00;67.60;;;24.35;44.54;100743.91;4989736;28;20646;-68
2022/08/31 01:10:38;;;;;;;4.13;3.20;;;23.00;67.80;;;24.38;44.20;100746.19;4990233;28;20606;-69
2022/08/31 01:13:06;;;;;;;3.60;3.10;;;23.00;67.90;;;24.41;44.20;100749.28;4991258;28;20614;-68
2022/08/31 01:15:35;;;;;;;3.83;3.20;;;23.00;67.90;;;24.37;44.67;100748.03;4992478;28;20717;-68
2022/08/31 01:18:05;;;;;;;2.93;2.63;;;23.00;67.90;;;24.36;44.96;100748.25;4990242;28;20731;-67
2022/08/31 01:21:09;;;;;;;3.10;2.73;;;23.00;68.10;;;24.33;44.50;100752.13;4989671;28;20631;-68
2022/08/31 01:23:42;;;;;;;2.90;2.67;;;23.00;68.20;;;24.28;44.79;100751.03;4990618;28;21234;-70
2022/08/31 01:26:14;;;;;;;2.87;2.70;;;23.00;68.40;;;24.03;45.57;100763.16;5005312;28;20713;-68
2022/08/31 01:28:41;;;;;;;5.07;2.60;;;22.90;68.70;;;23.77;46.21;100755.78;5009573;28;20630;-69
2022/08/31 01:31:22;;;;;;;5.07;2.80;;;22.70;69.00;;;23.97;45.17;100761.25;5011168;28;20610;-69
2022/08/31 01:33:49;;;;;;;2.50;2.30;;;22.70;69.20;;;23.74;46.37;100757.00;5010602;28;20640;-68
2022/08/31 01:36:17;;;;;;;2.67;2.47;;;22.70;69.80;;;23.70;46.97;100762.91;4993836;28;20629;-69
2022/08/31 01:38:45;;;;;;;4.30;2.60;;;22.60;70.70;;;23.55;49.23;100764.81;4989438;28;20613;-68
2022/08/31 01:41:18;;;;;;;5.83;3.00;;;22.60;72.90;;;23.56;50.33;100769.13;4990197;28;20641;-69
2022/08/31 01:43:45;;;;;;;3.20;2.97;;;22.50;75.10;;;23.62;51.29;100771.00;4991848;28;20661;-68
2022/08/31 01:46:13;;;;;;;2.70;2.50;;;22.50;76.50;;;23.69;51.22;100767.41;4994889;28;20630;-68
2022/08/31 01:48:43;;;;;;;2.30;2.10;;;22.50;77.60;;;23.68;52.41;100760.41;5003376;28;20678;-69
2022/08/31 01:51:14;;;;;;;3.87;3.17;;;22.50;79.30;;;23.68;53.30;100764.94;4993883;28;21197;-69
2022/08/31 01:53:43;;;;;;;4.47;3.37;;;22.50;81.10;;;23.58;54.41;100767.06;4990659;28;20642;-69
2022/08/31 01:56:37;;;;;;;4.07;3.00;;;22.50;82.40;;;23.39;55.65;100759.72;4990614;28;20634;-69
2022/08/31 01:59:07;;;;;;;3.53;3.20;;;22.40;84.60;;;23.26;57.03;100760.38;4994245;28;20634;-68
2022/08/31 02:01:39;;;;;;;3.53;2.80;;;22.30;86.80;;;23.31;57.58;100758.00;4990574;28;20630;-68
2022/08/31 02:04:09;;;;;;;3.87;2.80;;;22.30;88.30;;;23.07;58.79;100756.50;4991014;28;20691;-68
2022/08/31 02:06:40;;;;;;;3.20;3.00;;;22.10;90.10;;;23.19;58.56;100758.69;4989960;28;20645;-69
2022/08/31 02:09:08;;;;;;;3.10;2.77;;;22.10;90.60;;;23.22;59.64;100758.28;4997452;28;20630;-68
2022/08/31 02:11:35;;;;;;;3.17;2.87;;;22.10;91.70;;;23.09;61.09;100753.66;5010022;28;20641;-68
2022/08/31 02:14:04;;;;;;;4.43;2.83;;;22.10;93.00;;;23.04;62.55;100751.53;5012805;28;21007;-68
2022/08/31 02:16:31;;;;;;;3.73;3.33;;;22.00;94.40;;;22.97;63.68;100757.81;5015289;28;20625;-70
2022/08/31 02:18:58;;;;;;;2.70;2.50;;;22.00;95.80;;;22.97;64.26;100756.00;5013735;28;20683;-69
2022/08/31 02:21:26;;;;;;;4.30;3.40;;;21.90;97.10;;;22.91;64.97;100764.69;5010029;28;21196;-70
2022/08/31 02:23:53;;;;;;;7.73;3.70;;;21.90;98.10;;;23.04;64.83;100751.53;5003295;28;20693;-69
2022/08/31 02:26:22;;;;;;;3.10;2.83;;;21.90;99.10;;;22.88;65.84;100762.44;5005887;28;20648;-72
2022/08/31 02:28:49;;;;;;;3.37;3.07;;;21.90;99.90;;;22.76;66.59;100763.94;5008732;28;21012;-68
2022/08/31 02:31:16;;;;;;;3.50;3.20;;;21.80;99.90;;;22.93;65.96;100762.72;5007219;28;20621;-68
2022/08/31 02:33:43;;;;;;;6.00;3.53;;;21.80;99.90;;;22.94;66.21;100761.69;5013760;28;20617;-70
2022/08/31 02:36:11;;;;;;;3.60;3.30;;;21.80;99.90;;;22.78;66.96;100766.38;5013944;28;20625;-70
2022/08/31 02:38:39;;;;;;;3.40;3.10;;;21.70;99.90;;;22.82;67.16;100768.50;5003383;28;20690;-68
2022/08/31 02:41:06;;;;;;;5.50;3.40;;;21.80;99.90;;;22.80;67.33;100773.19;5004220;28;20625;-69
2022/08/31 02:43:34;;;;;;;3.47;3.17;;;21.70;99.90;;;22.77;67.65;100770.88;5005129;28;20997;-69
2022/08/31 02:46:01;;;;;;;3.80;3.50;;;21.70;99.90;;;22.85;67.28;100772.63;4994422;28;20607;-71
2022/08/31 02:48:28;;;;;;;4.63;3.83;;;21.70;99.90;;;22.66;68.40;100778.53;5002054;28;20661;-68
2022/08/31 02:51:07;;;;;;;7.70;3.60;;;21.70;99.90;;;22.70;68.26;100766.50;5013822;28;20594;-69
2022/08/31 02:53:35;;;;;;;3.60;3.10;;;21.60;99.90;;;22.80;67.34;100775.00;4998875;28;20647;-69
2022/08/31 02:56:04;;;;;;;4.00;3.50;;;21.60;99.90;;;22.88;67.32;100781.06;4993174;28;20629;-70
2022/08/31 02:58:31;;;;;;;3.40;3.00;;;21.70;99.90;;;22.88;67.56;100780.22;4994147;28;20638;-69
2022/08/31 03:00:58;;;;;;;3.50;3.10;;;21.70;99.90;;;22.85;67.63;100781.41;4993787;28;20976;-68
2022/08/31 03:03:25;;;;;;;3.27;2.97;;;21.70;99.90;;;22.62;69.02;100782.53;4992825;28;20639;-69
2022/08/31 03:05:52;;;;;;;4.10;3.60;;;21.60;99.90;;;22.55;69.55;100785.09;4994375;28;20654;-68
2022/08/31 03:08:18;;;;;;;3.17;2.80;;;21.50;99.90;;;22.58;69.75;100778.56;4993872;28;20693;-71
2022/08/31 03:10:45;;;;;;;3.50;3.10;;;21.50;99.90;;;22.51;70.03;100775.81;4993602;28;20634;-69
2022/08/31 03:13:12;;;;;;;3.40;3.00;;;21.50;99.90;;;22.21;71.62;100782.16;4994544;28;20605;-68
2022/08/31 03:15:42;;;;;;;4.93;3.30;;;21.40;99.90;;;22.08;72.64;100773.97;4992957;28;20637;-69
2022/08/31 03:18:09;;;;;;;4.97;3.60;;;21.20;99.90;;;22.07;72.62;100778.44;4996360;28;21260;-69
2022/08/31 03:20:36;;;;;;;3.57;3.27;;;21.20;99.90;;;22.22;71.96;100773.97;5000010;28;20643;-69
2022/08/31 03:23:04;;;;;;;2.90;2.70;;;21.20;99.90;;;22.25;71.86;100770.13;4992228;28;20652;-68
2022/08/31 03:25:31;;;;;;;3.57;3.00;;;21.20;99.90;;;22.35;71.48;100762.72;4992929;28;21260;-70
2022/08/31 03:27:58;;;;;;;4.87;3.37;;;21.20;99.90;;;22.27;71.88;100768.13;4993212;28;20669;-69
2022/08/31 03:30:27;;;;;;;8.97;3.70;;;21.20;99.90;;;22.33;71.64;100772.72;4993490;28;20607;-69
2022/08/31 03:32:55;;;;;;;7.00;3.90;;;21.20;99.90;;;22.39;71.20;100774.63;4993000;28;20661;-69
2022/08/31 03:35:29;;;;;;;3.80;3.50;;;21.20;99.90;;;22.47;70.34;100779.06;4994202;28;21045;-69
2022/08/31 03:37:56;;;;;;;5.40;4.20;;;21.20;99.90;;;22.51;70.09;100783.78;4993068;28;20665;-68
2022/08/31 03:40:23;;;;;;;4.50;4.07;;;21.30;99.90;;;22.62;69.73;100788.69;4993875;28;20979;-69
2022/08/31 03:42:50;;;;;;;4.77;4.13;;;21.40;99.90;;;22.66;69.51;100779.31;4993414;28;20653;-68
2022/08/31 03:45:17;;;;;;;3.53;3.20;;;21.50;99.90;;;22.75;69.32;100783.53;4993084;28;20658;-69
2022/08/31 03:47:44;;;;;;;4.93;3.60;;;21.50;99.90;;;22.72;69.78;100783.09;4992449;28;20638;-69
2022/08/31 03:50:12;;;;;;;3.70;3.40;;;21.50;99.90;;;22.71;69.68;100786.75;4995974;28;20999;-68
2022/08/31 03:52:39;;;;;;;3.93;3.53;;;21.50;99.90;;;22.81;69.10;100782.78;5001961;28;20630;-68
2022/08/31 03:55:07;;;;;;;4.33;3.87;;;21.50;99.90;;;22.85;69.00;100788.59;4992292;28;20618;-68
2022/08/31 03:57:34;;;;;;;3.57;3.27;;;21.60;99.90;;;22.86;68.86;100790.22;4992353;28;20651;-68
2022/08/31 04:00:03;;;;;;;3.67;3.33;;;21.60;99.90;;;22.81;69.03;100790.78;4993960;28;20611;-68
2022/08/31 04:02:30;;;;;;;3.73;3.40;;;21.60;99.90;;;22.75;69.42;100791.53;4993069;28;20622;-69
2022/08/31 04:05:04;;;;;;;5.30;3.43;;;21.60;99.90;;;22.73;69.32;100792.72;4993914;28;20677;-68
2022/08/31 04:07:31;;;;;;;3.53;3.23;;;21.50;99.90;;;22.62;70.04;100794.00;4997718;28;20694;-68
2022/08/31 04:10:10;;;;;;;5.40;3.40;;;21.50;99.90;;;22.72;69.56;100799.84;5010507;28;20622;-69
2022/08/31 04:12:38;;;;;;;3.93;3.47;;;21.50;99.90;;;22.77;69.28;100801.97;5010228;28;20636;-68
2022/08/31 04:15:07;;;;;;;3.53;3.23;;;21.50;99.90;;;22.78;69.29;100803.63;5012545;28;20705;-68
2022/08/31 04:17:34;;;;;;;3.77;3.40;;;21.50;99.90;;;22.75;69.46;100806.66;5011933;28;20630;-68
2022/08/31 04:20:01;;;;;;;3.37;3.07;;;21.50;99.90;;;22.87;68.93;100805.19;4993136;28;20639;-68
2022/08/31 04:22:51;;;;;;;4.60;3.43;;;21.50;99.90;;;22.83;68.85;100807.38;4996533;28;20684;-68
2022/08/31 04:25:18;;;;;;;4.57;3.60;;;21.50;99.90;;;22.91;68.70;100803.81;4992249;28;20654;-68
2022/08/31 04:27:49;;;;;;;11.30;4.20;;;21.60;99.90;;;22.93;68.46;100805.28;4992868;28;20647;-69
2022/08/31 04:30:19;;;;;;;4.80;3.93;;;21.60;99.90;;;22.91;68.45;100814.44;4994736;28;20654;-68
2022/08/31 04:32:47;;;;;;;4.10;3.80;;;21.60;99.90;;;22.98;67.77;100810.84;4999047;28;20630;-68
2022/08/31 04:35:15;;;;;;;4.80;3.67;;;21.60;99.90;;;23.02;67.79;100811.31;4992579;28;20637;-67
2022/08/31 04:37:41;;;;;;;5.37;3.90;;;21.70;99.90;;;23.05;67.59;100811.75;4997951;28;21034;-68
2022/08/31 04:40:19;;;;;;;4.23;3.83;;;21.70;99.90;;;23.04;67.45;100814.63;4999200;28;20670;-68
2022/08/31 04:42:51;;;;;;;5.00;3.70;;;21.70;99.90;;;23.11;67.06;100823.50;5010753;28;20705;-69
2022/08/31 04:45:18;;;;;;;4.40;4.00;;;21.70;99.90;;;23.07;67.53;100816.88;5012330;28;20997;-69
2022/08/31 04:47:44;;;;;;;3.70;3.40;;;21.80;99.90;;;23.10;67.60;100820.03;5034095;23;20779;-66
2022/08/31 04:50:14;;;;;;;6.73;6.13;;;21.80;99.90;;;23.07;67.48;100816.88;5030052;28;20979;-66
2022/08/31 04:52:42;;;;;;;4.47;4.07;;;21.80;99.90;;;23.05;67.53;100826.91;5030017;28;20631;-67
2022/08/31 04:55:11;;;;;;;5.20;4.40;;;21.80;99.90;;;23.13;67.33;100821.47;5032197;28;20984;-67
2022/08/31 04:57:39;;;;;;;7.20;4.63;;;21.80;99.90;;;23.14;67.22;100825.78;5017248;28;20665;-66
2022/08/31 05:00:08;;;;;;;6.90;5.20;;;21.80;99.90;;;23.05;67.02;100816.25;5031331;28;20625;-67
2022/08/31 05:02:38;;;;;;;5.07;4.30;;;21.80;99.90;;;22.99;66.41;100819.66;5010800;28;20624;-66
2022/08/31 05:05:05;;;;;;;5.67;4.67;;;21.70;99.90;;;22.97;64.84;100825.19;5011622;28;20653;-66
2022/08/31 05:07:32;;;;;;;6.40;4.30;;;21.70;99.90;;;23.00;63.91;100826.63;5010882;28;20664;-66
2022/08/31 05:09:59;;;;;;;4.87;4.40;;;21.70;99.90;;;23.04;62.42;100833.25;5011449;28;20972;-67
2022/08/31 05:12:26;;;;;;;6.30;4.50;;;21.80;99.90;;;22.94;60.30;100836.19;5010482;28;20649;-66
2022/08/31 05:14:55;;;;;;;4.60;4.10;;;21.80;99.90;;;22.87;60.51;100839.78;5031347;28;20631;-67
2022/08/31 05:17:22;;;;;;;9.00;4.00;;;21.70;99.90;;;22.85;59.82;100839.94;5017184;28;20662;-66
2022/08/31 05:19:51;;;;;;;7.00;3.97;;;21.70;99.90;;;22.79;59.12;100837.19;5016772;28;20658;-69
2022/08/31 05:22:18;;;;;;;5.13;3.97;;;21.60;99.90;;;22.77;59.58;100845.38;5030344;28;20629;-66
2022/08/31 05:24:46;;;;;;;4.70;4.13;;;21.60;99.90;;;22.63;59.47;100853.34;5019231;28;20661;-66
2022/08/31 05:27:14;;;;;;;4.23;3.93;;;21.50;99.90;;;22.79;58.55;100853.97;5020114;28;21220;-66
2022/08/31 05:29:41;;;;;;;4.03;3.63;;;21.50;99.90;;;22.69;57.92;100845.47;5029826;28;20617;-66
2022/08/31 05:32:08;;;;;;;4.80;3.87;;;21.50;99.90;;;22.71;57.35;100854.09;5017988;28;20621;-69
2022/08/31 05:34:35;;;;;;;6.50;4.50;;;21.50;99.90;;;22.75;57.31;100843.88;5019011;28;20610;-66
2022/08/31 05:37:02;;;;;;;5.03;3.60;;;21.50;99.90;;;22.69;56.74;100844.63;5008840;28;21429;-67
2022/08/31 05:39:30;;;;;;;4.30;3.77;;;21.50;99.90;;;22.73;55.95;100844.09;5009236;28;20630;-66
2022/08/31 05:41:57;;;;;;;5.37;4.43;;;21.50;99.90;;;22.77;55.51;100858.66;5009565;28;20618;-66
2022/08/31 05:44:25;;;;;;;6.20;4.00;;;21.60;99.90;;;22.81;54.87;100859.94;5011079;28;20644;-67
2022/08/31 05:46:58;;;;;;;3.93;3.53;;;21.60;99.90;;;22.78;54.71;100867.47;5007199;28;21225;-67
2022/08/31 05:49:30;;;;;;;4.73;3.97;;;21.60;99.90;;;22.73;54.35;100865.38;5010606;28;20631;-69
2022/08/31 05:51:59;;;;;;;4.43;4.03;;;21.60;99.70;;;22.67;54.61;100866.09;5009857;28;20656;-67
2022/08/31 05:54:27;;;;;;;3.50;3.10;;;21.50;99.70;;;22.69;53.96;100865.91;5017218;28;20835;-66
2022/08/31 05:56:54;;;;;;;3.00;2.77;;;21.50;99.20;;;22.56;54.31;100866.50;5029016;28;21202;-66
2022/08/31 05:59:29;;;;;;;3.90;3.60;;;21.50;99.40;;;22.56;54.36;100876.31;5031100;28;20612;-66
2022/08/31 06:01:57;;;;;;;7.80;4.20;;;21.40;99.50;;;22.55;54.66;100869.34;5026360;28;20641;-68
2022/08/31 06:04:26;;;;;;;7.83;4.20;;;21.40;99.60;;;22.67;55.00;100873.25;5029758;28;20640;-66
2022/08/31 06:06:53;;;;;;;5.50;3.93;;;21.40;99.90;;;22.61;54.76;100877.47;5015247;28;20621;-68
2022/08/31 06:09:20;;;;;;;4.77;4.13;;;21.40;99.80;;;22.57;54.81;100876.16;5010712;28;20640;-66
2022/08/31 06:11:47;;;;;;;4.07;3.57;;;21.40;99.70;;;22.62;54.87;100879.09;5013793;28;20622;-67
2022/08/31 06:14:14;;;;;;;4.23;3.83;;;21.50;99.80;;;22.67;54.97;100879.41;5008976;28;21232;-66
2022/08/31 06:16:43;;;;;;;7.07;4.33;;;21.50;99.90;;;22.75;54.47;100883.78;5009417;28;20765;-67
2022/08/31 06:19:11;;;;;;;4.93;3.93;;;21.50;99.50;;;22.69;54.53;100879.22;5018525;28;20637;-67
2022/08/31 06:21:42;;;;;;;13.03;4.27;;;21.50;99.40;;;22.71;54.51;100882.50;5030520;28;20639;-66
2022/08/31 06:24:17;;;;;;;4.57;4.17;;;21.50;99.70;;;22.85;54.17;100884.38;5030107;28;20623;-66
2022/08/31 06:26:51;;;;;;;5.17;4.50;;;21.60;99.30;;;22.84;54.29;100883.53;5029436;28;20663;-66
2022/08/31 06:29:24;;;;;;;5.03;4.57;;;21.60;99.30;;;22.82;54.74;100895.38;5020269;28;20632;-67
2022/08/31 06:31:50;;;;;;;3.97;3.60;;;21.60;99.50;;;22.82;54.61;100898.84;5020103;28;20613;-67
2022/08/31 06:34:19;;;;;;;3.40;3.10;;;21.60;99.30;;;22.84;54.60;100902.16;5018189;28;20721;-71
2022/08/31 06:36:47;;;;;;;6.00;4.80;;;21.60;99.50;;;22.82;55.08;100906.00;5014983;28;20638;-66
2022/08/31 06:39:16;;;;;;;6.80;3.70;;;21.60;99.70;;;22.71;55.60;100899.31;5011863;28;20614;-66
2022/08/31 06:41:43;;;;;;;6.10;4.60;;;21.60;99.90;;;22.79;55.25;100901.03;5009118;28;21000;-65
2022/08/31 06:44:12;;;;;;;4.73;3.60;;;21.50;99.90;;;22.74;55.80;100904.28;5010789;28;21187;-66
2022/08/31 06:46:41;;;;;;;4.43;4.00;;;21.50;99.90;;;22.80;55.23;100905.38;5022677;28;20668;-67
2022/08/31 06:49:14;;;;;;;4.50;4.10;;;21.50;99.90;;;22.68;55.78;100904.97;5009760;28;21272;-66
2022/08/31 06:51:42;;;;;;;8.63;4.70;;;21.50;99.90;;;22.80;55.19;100903.53;5028068;28;20987;-67
2022/08/31 06:54:12;;;;;;;4.50;4.10;;;21.50;99.90;;;22.84;54.67;100911.97;5026956;28;20621;-66
2022/08/31 06:56:57;;;;;;;7.63;4.83;;;21.60;99.60;;;22.78;54.62;100913.53;5008817;28;21031;-66
2022/08/31 06:59:25;;;;;;;5.93;4.20;;;21.60;99.40;;;22.75;54.31;100913.88;5010529;28;20622;-65
2022/08/31 07:01:57;;;;;;;4.73;4.17;;;21.60;99.20;;;22.81;54.33;100910.50;5027017;28;20628;-66
2022/08/31 07:04:26;;;;;;;3.97;3.67;;;21.60;99.00;;;22.82;54.11;100917.47;5032843;28;20628;-66
2022/08/31 07:06:53;;;;;;;5.97;3.90;;;21.60;99.10;;;22.76;54.25;100920.88;5015817;28;20663;-66
2022/08/31 07:09:20;;;;;;;3.60;3.27;;;21.60;99.00;;;22.73;54.12;100929.22;5012572;28;20626;-65
2022/08/31 07:11:51;;;;;;;4.37;3.53;;;21.60;99.00;;;22.76;53.85;100930.69;5013165;28;20633;-66
2022/08/31 07:14:22;;;;;;;4.50;4.10;;;21.50;99.00;;;22.74;53.96;100930.88;5014439;28;20644;-66
2022/08/31 07:16:52;;;;;;;7.40;4.00;;;21.50;98.90;;;22.87;53.34;100928.38;5012587;28;20846;-65
2022/08/31 07:19:20;;;;;;;4.80;4.30;;;21.60;98.80;;;22.92;53.05;100934.00;5024850;28;20651;-65
2022/08/31 07:22:00;;;;;;;4.20;3.90;;;21.60;98.60;;;22.95;53.04;100932.81;5031915;28;20639;-66
2022/08/31 07:24:32;;;;;;;5.27;4.50;;;21.70;98.50;;;22.94;52.96;100937.28;5027532;28;20647;-66
2022/08/31 07:27:08;;;;;;;3.20;3.00;;;21.70;98.40;;;22.95;53.12;100948.78;5031332;28;20672;-66
2022/08/31 07:29:40;;;;;;;7.43;4.40;;;21.80;98.20;;;23.09;53.01;100940.78;5033247;28;20612;-66
2022/08/31 07:32:09;;;;;;;3.90;3.50;;;21.80;98.20;;;22.96;53.13;100947.75;5027860;28;20629;-66
2022/08/31 07:34:37;;;;;;;6.63;4.03;;;21.80;98.30;;;22.93;53.35;100948.97;5013026;28;20708;-66
2022/08/31 07:42:43;;;;;;;7.50;4.23;;;21.70;99.10;;;22.80;56.41;100964.72;5011505;28;20736;-65
2022/08/31 07:45:21;;;;;;;4.30;4.00;;;21.70;99.90;;;22.44;58.88;100961.03;5012440;28;20657;-66
2022/08/31 07:47:50;;;;;;;4.30;3.90;;;21.50;99.90;;;22.50;59.92;100976.28;5017216;28;20660;-66
2022/08/31 07:50:20;;;;;;;4.83;4.43;;;21.40;99.90;;;22.63;59.65;100978.34;5032864;28;20617;-66
2022/08/31 07:52:52;;;;;;;5.20;4.80;;;21.40;99.90;;;22.45;61.15;100978.63;5019129;28;20642;-67
2022/08/31 07:55:22;;;;;;;4.50;4.10;;;21.40;99.90;;;22.50;60.87;100976.28;5011575;28;20622;-65
2022/08/31 07:57:53;;;;;;;6.17;4.10;;;21.40;99.90;;;22.44;61.74;100987.63;5024172;28;21041;-65
2022/08/31 08:00:27;;;;;;;4.33;3.47;;;21.30;99.90;;;22.28;62.50;100985.06;5031991;28;20624;-66
2022/08/31 08:02:55;;;;;;;4.33;3.93;;;21.30;99.90;;;22.21;62.97;100997.44;5027353;28;20640;-66
2022/08/31 08:05:26;;;;;;;8.60;4.60;;;21.10;99.90;;;22.16;64.13;100999.78;5031270;28;21091;-66
2022/08/31 08:08:04;;;;;;;8.40;5.10;;;21.00;99.90;;;22.16;65.07;100997.13;5030976;28;20661;-66
2022/08/31 08:10:41;;;;;;;5.23;4.60;;;21.00;99.90;;;22.02;67.13;101013.84;5029337;28;20636;-67
2022/08/31 08:13:11;;;;;;;4.43;3.67;;;20.90;99.90;;;21.75;69.51;101007.13;5031941;28;20619;-66
2022/08/31 08:15:38;;;;;;;5.67;4.63;;;20.80;99.90;;;21.69;69.92;101007.81;5018950;28;21083;-65
2022/08/31 08:18:09;;;;;;;7.23;5.33;;;20.70;99.90;;;21.75;71.15;101012.44;5011373;28;21259;-65
2022/08/31 08:20:37;;;;;;;7.17;5.70;;;20.60;99.90;;;21.71;71.76;101004.97;5012444;28;20708;-66
2022/08/31 08:23:14;;;;;;;5.27;4.77;;;20.60;99.90;;;21.76;72.46;101018.56;5011646;28;20641;-65
2022/08/31 08:25:45;;;;;;;7.20;5.70;;;20.60;99.90;;;21.67;73.51;101014.28;5011657;28;20665;-66
2022/08/31 08:28:18;;;;;;;9.27;6.00;;;20.50;99.90;;;21.34;76.01;101018.88;5018009;28;20708;-67
2022/08/31 08:31:10;;;;;;;9.73;7.00;;;20.30;99.90;;;21.33;77.11;101033.16;5010934;28;20622;-66
2022/08/31 08:33:38;;;;;;;10.33;6.80;;;20.20;99.90;;;21.26;77.18;101022.41;5010413;28;20636;-67
2022/08/31 08:36:06;;;;;;;11.67;5.20;;;20.10;99.90;;;21.11;79.19;101031.22;5019180;28;21071;-66
2022/08/31 08:38:41;;;;;;;10.23;5.13;;;20.10;99.90;;;20.89;81.05;101038.81;5016135;28;20665;-66
2022/08/31 08:41:17;;;;;;;5.83;4.40;;;20.00;99.90;;;20.84;79.73;101038.53;5011393;28;20621;-66
2022/08/31 08:43:51;;;;;;;4.53;3.50;;;19.80;99.90;;;20.71;79.23;101042.66;5025116;28;20639;-65
2022/08/31 08:46:46;;;;;;;7.40;4.10;;;19.70;99.90;;;20.26;82.46;101037.81;5014496;28;20657;-66
2022/08/31 08:49:18;;;;;;;6.93;4.50;;;19.30;99.90;;;20.36;82.60;101049.06;5028494;28;20633;-65
2022/08/31 08:51:49;;;;;;;7.17;5.00;;;19.30;99.90;;;20.39;82.58;101053.22;5023576;28;20638;-67
2022/08/31 08:54:42;;;;;;;10.70;5.70;;;19.30;99.90;;;20.54;82.65;101044.47;5011673;28;20614;-66
2022/08/31 08:57:35;;;;;;;5.93;4.13;;;19.40;99.90;;;20.51;83.34;101046.59;5028629;28;20660;-66
2022/08/31 09:00:16;;;;;;;8.10;4.90;;;19.40;99.90;;;20.63;82.25;101043.50;5023940;28;21034;-66
2022/08/31 09:02:49;;;;;;;8.63;4.77;;;19.40;99.90;;;20.56;83.10;101039.00;5031653;28;20615;-67
2022/08/31 09:05:58;;;;;;;4.27;3.57;;;19.40;99.90;;;20.50;82.29;101044.97;5017910;28;21050;-66
2022/08/31 09:08:57;;;;;;;4.73;4.20;;;19.40;99.90;;;20.31;84.30;101039.97;5019167;28;20659;-68
2022/08/31 09:11:51;;;;;;;3.87;3.47;;;19.30;99.90;;;20.51;83.41;101043.94;5025079;28;20636;-65
2022/08/31 09:14:57;;;;;;;5.53;3.33;;;19.30;99.90;;;20.46;82.96;101038.34;5009474;28;20626;-66
2022/08/31 09:17:33;;;;;;;7.87;4.10;;;19.30;99.90;;;20.38;84.82;101044.44;5013744;28;20651;-66
2022/08/31 09:20:02;;;;;;;4.23;3.83;;;19.20;99.90;;;20.38;84.99;101040.97;5029590;28;20734;-66
2022/08/31 09:22:49;;;;;;;6.67;4.43;;;19.20;99.90;;;20.45;84.55;101039.31;5030242;28;20616;-66
2022/08/31 09:25:44;;;;;;;5.27;4.60;;;19.20;99.90;;;20.54;84.31;101038.34;5017578;28;20732;-66
2022/08/31 09:28:14;;;;;;;4.90;3.63;;;19.30;99.90;;;20.60;82.23;101040.31;5027177;28;20660;-66
2022/08/31 09:30:50;;;;;;;4.70;4.07;;;19.40;99.90;;;20.65;82.63;101044.16;5029584;28;20966;-66
2022/08/31 09:33:32;;;;;;;5.23;4.60;;;19.40;99.90;;;20.76;83.54;101050.97;5024856;28;20640;-66
2022/08/31 09:36:18;;;;;;;7.93;4.63;;;19.50;99.90;;;20.85;83.86;101050.78;5009785;28;20616;-66
2022/08/31 09:38:46;;;;;;;6.87;5.17;;;19.50;99.90;;;20.91;82.02;101049.28;5009892;28;20660;-66
2022/08/31 09:41:36;;;;;;;5.70;4.50;;;19.60;99.90;;;21.06;81.18;101052.94;5009805;28;20621;-66
2022/08/31 09:44:25;;;;;;;7.83;5.20;;;19.80;99.90;;;21.26;79.99;101053.41;5009108;28;21033;-67
2022/08/31 09:46:55;;;;;;;6.80;5.63;;;19.90;99.90;;;21.25;78.05;101055.22;5009871;28;20669;-66
2022/08/31 09:49:37;;;;;;;9.33;6.33;;;20.00;99.90;;;21.30;77.83;101039.63;5027227;28;21064;-66
2022/08/31 09:55:23;;;;;;;7.90;6.13;;;20.00;99.90;;;21.53;77.31;101035.25;5029625;28;20641;-66
2022/08/31 09:58:01;;;;;;;9.73;7.30;;;20.10;99.90;;;21.52;78.55;101040.75;5028602;28;20667;-66
2022/08/31 10:00:39;;;;;;;9.47;7.37;;;20.10;99.90;;;21.53;78.50;101035.25;5027340;28;21196;-66
2022/08/31 10:03:29;;;;;;;9.33;5.80;;;20.20;99.90;;;21.74;78.23;101033.84;5011366;28;20621;-67
2022/08/31 10:05:56;;;;;;;11.73;6.67;;;20.30;99.90;;;21.91;76.86;101032.81;5009611;28;20661;-66
2022/08/31 10:08:56;;;;;;;11.63;7.00;;;20.50;99.90;;;21.86;77.03;101027.19;5009529;28;20654;-66
2022/08/31 10:11:30;;;;;;;6.97;5.77;;;20.60;99.90;;;21.96;76.90;101039.25;5008265;28;20625;-65
2022/08/31 10:14:15;;;;;;;8.63;6.50;;;20.60;99.90;;;21.93;77.00;101031.66;5026397;28;21521;-66
2022/08/31 10:17:11;;;;;;;8.43;7.30;;;20.70;99.90;;;21.94;76.70;101038.59;5027866;28;20708;-66
2022/08/31 10:20:07;;;;;;;10.83;6.10;;;20.70;99.90;;;22.02;75.96;101037.75;5023943;28;20755;-66
2022/08/31 10:22:40;;;;;;;9.97;7.03;;;20.70;99.90;;;22.01;76.52;101041.41;5030063;28;20824;-67
2022/08/31 10:25:31;;;;;;;9.93;7.40;;;20.80;99.90;;;21.94;76.41;101037.75;5031234;28;20613;-66
2022/08/31 10:28:14;;;;;;;14.27;6.97;;;20.80;99.90;;;22.08;76.10;101034.38;5026580;28;20664;-66
2022/08/31 10:30:50;;;;;;;7.30;6.33;;;20.80;99.90;;;22.17;76.53;101035.97;5028512;28;20616;-66
2022/08/31 10:35:01;;;;;;;9.00;7.43;;;20.80;99.90;;;22.07;77.59;101038.03;5017573;28;21270;-68
2022/08/31 10:36:18;;;;;;;11.90;7.20;;;20.80;99.90;;;21.93;76.79;101031.66;5013475;28;21267;-67
2022/08/31 10:38:48;;;;;;;8.63;7.13;;;20.70;99.90;;;22.07;76.28;101035.38;5013013;28;20657;-66
2022/08/31 10:41:15;;;;;;;9.03;7.20;;;20.70;99.90;;;22.24;75.55;101034.28;5014185;28;20613;-64
2022/08/31 10:43:45;;;;;;;11.33;8.00;;;20.80;99.90;;;22.34;75.32;101037.53;5031766;28;20641;-67
2022/08/31 10:46:13;;;;;;;11.33;7.07;;;20.80;99.90;;;22.34;75.01;101040.19;5020494;28;20673;-66